sensor_id;sensor_type;location;lat;lon;timestamp;pressure;altitude;pressure_sealevel;temperature;humidity
68988;BME280;56038;46.080;11.116;2023-04-15T00:00:17;98263.03;;;7.52;57.40
68988;BME280;56038;46.080;11.116;2023-04-15T00:05:25;98260.28;;;7.55;57.61
68988;BME280;56038;46.080;11.116;2023-04-15T00:10:31;98258.06;;;7.47;58.11
68988;BME280;56038;46.080;11.116;2023-04-15T00:15:33;98257.91;;;7.50;57.86
68988;BME280;56038;46.080;11.116;2023-04-15T00:20:36;98261.91;;;7.39;58.43
68988;BME280;56038;46.080;11.116;2023-04-15T00:25:38;98257.13;;;7.30;58.73
68988;BME280;56038;46.080;11.116;2023-04-15T00:30:40;98255.44;;;7.29;58.70
68988;BME280;56038;46.080;11.116;2023-04-15T00:35:43;98247.72;;;7.27;58.64
68988;BME280;56038;46.080;11.116;2023-04-15T00:40:45;98252.34;;;7.20;59.10
68988;BME280;56038;46.080;11.116;2023-04-15T00:45:46;98243.63;;;7.21;58.81
68988;BME280;56038;46.080;11.116;2023-04-15T00:50:49;98247.28;;;7.17;58.99
68988;BME280;56038;46.080;11.116;2023-04-15T00:55:51;98250.47;;;7.04;58.66
68988;BME280;56038;46.080;11.116;2023-04-15T01:00:54;98255.59;;;7.05;58.48
68988;BME280;56038;46.080;11.116;2023-04-15T01:06:00;98259.03;;;7.06;58.83
68988;BME280;56038;46.080;11.116;2023-04-15T01:11:07;98262.63;;;7.03;58.13
68988;BME280;56038;46.080;11.116;2023-04-15T01:16:10;98254.84;;;7.03;58.14
68988;BME280;56038;46.080;11.116;2023-04-15T01:21:13;98259.13;;;7.04;57.93
68988;BME280;56038;46.080;11.116;2023-04-15T01:26:16;98254.97;;;7.00;57.87
68988;BME280;56038;46.080;11.116;2023-04-15T01:31:18;98253.81;;;6.87;58.26
68988;BME280;56038;46.080;11.116;2023-04-15T01:36:20;98260.06;;;6.83;57.83
68988;BME280;56038;46.080;11.116;2023-04-15T01:41:25;98264.84;;;6.72;58.72
68988;BME280;56038;46.080;11.116;2023-04-15T01:46:27;98260.50;;;6.72;58.15
68988;BME280;56038;46.080;11.116;2023-04-15T01:51:29;98264.84;;;6.72;58.35
68988;BME280;56038;46.080;11.116;2023-04-15T01:56:33;98266.88;;;6.65;58.38
68988;BME280;56038;46.080;11.116;2023-04-15T02:01:35;98262.97;;;6.55;58.52
68988;BME280;56038;46.080;11.116;2023-04-15T02:06:37;98270.16;;;6.48;58.75
68988;BME280;56038;46.080;11.116;2023-04-15T02:11:41;98277.28;;;6.43;59.36
68988;BME280;56038;46.080;11.116;2023-04-15T02:16:42;98280.13;;;6.37;60.30
68988;BME280;56038;46.080;11.116;2023-04-15T02:21:44;98284.41;;;6.38;59.66
68988;BME280;56038;46.080;11.116;2023-04-15T02:26:47;98279.34;;;6.35;59.99
68988;BME280;56038;46.080;11.116;2023-04-15T02:31:49;98280.78;;;6.42;58.96
68988;BME280;56038;46.080;11.116;2023-04-15T02:36:50;98278.50;;;6.35;59.36
68988;BME280;56038;46.080;11.116;2023-04-15T02:41:57;98283.00;;;6.29;59.21
68988;BME280;56038;46.080;11.116;2023-04-15T02:47:00;98279.06;;;6.21;59.64
68988;BME280;56038;46.080;11.116;2023-04-15T02:52:02;98276.66;;;6.16;60.01
68988;BME280;56038;46.080;11.116;2023-04-15T02:57:06;98282.69;;;6.17;59.79
68988;BME280;56038;46.080;11.116;2023-04-15T03:02:08;98282.44;;;6.23;59.17
68988;BME280;56038;46.080;11.116;2023-04-15T03:07:09;98291.84;;;6.25;58.77
68988;BME280;56038;46.080;11.116;2023-04-15T03:12:12;98294.75;;;6.18;59.04
68988;BME280;56038;46.080;11.116;2023-04-15T03:17:14;98301.97;;;6.10;59.00
68988;BME280;56038;46.080;11.116;2023-04-15T03:22:16;98296.97;;;6.05;59.29
68988;BME280;56038;46.080;11.116;2023-04-15T03:27:19;98292.81;;;6.01;59.30
68988;BME280;56038;46.080;11.116;2023-04-15T03:32:21;98302.78;;;5.88;59.97
68988;BME280;56038;46.080;11.116;2023-04-15T03:37:22;98307.31;;;5.82;59.98
68988;BME280;56038;46.080;11.116;2023-04-15T03:42:26;98304.69;;;5.83;60.52
68988;BME280;56038;46.080;11.116;2023-04-15T03:47:27;98306.41;;;5.84;59.72
68988;BME280;56038;46.080;11.116;2023-04-15T03:52:29;98309.06;;;5.81;59.35
68988;BME280;56038;46.080;11.116;2023-04-15T03:57:32;98308.78;;;5.90;59.33
68988;BME280;56038;46.080;11.116;2023-04-15T04:02:37;98310.56;;;5.88;59.38
68988;BME280;56038;46.080;11.116;2023-04-15T04:07:39;98310.09;;;5.77;60.21
68988;BME280;56038;46.080;11.116;2023-04-15T04:12:42;98314.25;;;5.81;59.88
68988;BME280;56038;46.080;11.116;2023-04-15T04:17:43;98315.41;;;5.74;59.75
68988;BME280;56038;46.080;11.116;2023-04-15T04:22:45;98313.72;;;5.73;60.05
68988;BME280;56038;46.080;11.116;2023-04-15T04:27:48;98321.56;;;5.71;59.64
68988;BME280;56038;46.080;11.116;2023-04-15T04:32:50;98325.97;;;5.68;59.62
68988;BME280;56038;46.080;11.116;2023-04-15T04:37:52;98319.09;;;5.67;60.43
68988;BME280;56038;46.080;11.116;2023-04-15T04:42:55;98325.25;;;5.64;59.87
68988;BME280;56038;46.080;11.116;2023-04-15T04:47:57;98323.50;;;5.65;60.45
68988;BME280;56038;46.080;11.116;2023-04-15T04:52:59;98323.69;;;5.60;59.94
68988;BME280;56038;46.080;11.116;2023-04-15T04:58:02;98333.31;;;5.57;60.28
68988;BME280;56038;46.080;11.116;2023-04-15T05:03:03;98332.41;;;5.58;59.90
68988;BME280;56038;46.080;11.116;2023-04-15T05:08:06;98336.94;;;5.53;59.46
68988;BME280;56038;46.080;11.116;2023-04-15T05:13:09;98332.53;;;5.55;59.60
68988;BME280;56038;46.080;11.116;2023-04-15T05:18:10;98331.41;;;5.62;59.92
68988;BME280;56038;46.080;11.116;2023-04-15T05:23:12;98326.63;;;6.20;60.45
68988;BME280;56038;46.080;11.116;2023-04-15T05:28:15;98325.84;;;6.18;60.38
68988;BME280;56038;46.080;11.116;2023-04-15T05:33:17;98334.16;;;6.26;59.59
68988;BME280;56038;46.080;11.116;2023-04-15T05:38:18;98339.06;;;6.34;59.04
68988;BME280;56038;46.080;11.116;2023-04-15T05:43:21;98339.53;;;6.43;59.77
68988;BME280;56038;46.080;11.116;2023-04-15T05:48:23;98347.09;;;6.49;59.08
68988;BME280;56038;46.080;11.116;2023-04-15T05:53:25;98350.44;;;6.51;58.11
68988;BME280;56038;46.080;11.116;2023-04-15T05:58:28;98353.69;;;6.56;58.08
68988;BME280;56038;46.080;11.116;2023-04-15T06:03:29;98363.47;;;6.72;57.00
68988;BME280;56038;46.080;11.116;2023-04-15T06:08:31;98369.19;;;6.80;56.74
68988;BME280;56038;46.080;11.116;2023-04-15T06:13:34;98369.72;;;6.88;57.13
68988;BME280;56038;46.080;11.116;2023-04-15T06:18:36;98369.53;;;7.13;56.68
68988;BME280;56038;46.080;11.116;2023-04-15T06:23:37;98374.50;;;7.38;55.81
68988;BME280;56038;46.080;11.116;2023-04-15T06:28:41;98379.13;;;7.51;55.17
68988;BME280;56038;46.080;11.116;2023-04-15T06:33:43;98387.09;;;7.67;55.14
68988;BME280;56038;46.080;11.116;2023-04-15T06:38:45;98383.09;;;7.79;55.01
68988;BME280;56038;46.080;11.116;2023-04-15T06:43:48;98387.00;;;8.08;54.56
68988;BME280;56038;46.080;11.116;2023-04-15T06:48:49;98380.94;;;8.26;53.98
68988;BME280;56038;46.080;11.116;2023-04-15T06:53:51;98378.97;;;8.50;53.69
68988;BME280;56038;46.080;11.116;2023-04-15T06:58:54;98373.66;;;8.70;52.71
68988;BME280;56038;46.080;11.116;2023-04-15T07:03:56;98377.03;;;8.73;52.34
68988;BME280;56038;46.080;11.116;2023-04-15T07:08:58;98366.72;;;9.06;51.90
68988;BME280;56038;46.080;11.116;2023-04-15T07:14:02;98373.66;;;9.40;51.29
68988;BME280;56038;46.080;11.116;2023-04-15T07:19:03;98360.16;;;9.49;50.47
68988;BME280;56038;46.080;11.116;2023-04-15T07:24:05;98350.25;;;9.55;49.33
68988;BME280;56038;46.080;11.116;2023-04-15T07:29:09;98349.34;;;9.72;48.81
68988;BME280;56038;46.080;11.116;2023-04-15T07:34:11;98350.88;;;9.76;49.03
68988;BME280;56038;46.080;11.116;2023-04-15T07:39:12;98342.75;;;9.82;48.74
68988;BME280;56038;46.080;11.116;2023-04-15T07:44:16;98344.00;;;10.07;48.09
68988;BME280;56038;46.080;11.116;2023-04-15T07:49:18;98335.19;;;10.41;47.46
68988;BME280;56038;46.080;11.116;2023-04-15T07:54:20;98329.34;;;11.56;47.93
68988;BME280;56038;46.080;11.116;2023-04-15T07:59:23;98325.53;;;11.90;45.81
68988;BME280;56038;46.080;11.116;2023-04-15T08:04:26;98317.75;;;11.60;44.84
68988;BME280;56038;46.080;11.116;2023-04-15T08:09:28;98306.81;;;11.25;43.85
68988;BME280;56038;46.080;11.116;2023-04-15T08:14:34;98306.06;;;11.23;42.82
68988;BME280;56038;46.080;11.116;2023-04-15T08:19:35;98306.34;;;11.32;43.57
68988;BME280;56038;46.080;11.116;2023-04-15T08:24:37;98303.81;;;11.31;42.27
68988;BME280;56038;46.080;11.116;2023-04-15T08:29:40;98296.47;;;11.37;40.98
68988;BME280;56038;46.080;11.116;2023-04-15T08:34:42;98293.72;;;11.67;41.96
68988;BME280;56038;46.080;11.116;2023-04-15T08:39:44;98287.06;;;12.19;41.96
68988;BME280;56038;46.080;11.116;2023-04-15T08:44:48;98287.59;;;12.51;40.52
68988;BME280;56038;46.080;11.116;2023-04-15T08:49:51;98288.91;;;12.44;40.82
68988;BME280;56038;46.080;11.116;2023-04-15T08:54:56;98282.75;;;12.84;41.78
68988;BME280;56038;46.080;11.116;2023-04-15T09:00:01;98267.41;;;12.66;40.16
68988;BME280;56038;46.080;11.116;2023-04-15T09:05:03;98264.56;;;12.69;40.18
68988;BME280;56038;46.080;11.116;2023-04-15T09:10:09;98250.88;;;13.03;39.65
68988;BME280;56038;46.080;11.116;2023-04-15T09:15:12;98251.53;;;13.19;38.67
68988;BME280;56038;46.080;11.116;2023-04-15T09:20:16;98241.44;;;13.39;38.42
68988;BME280;56038;46.080;11.116;2023-04-15T09:25:26;98227.50;;;13.88;37.86
68988;BME280;56038;46.080;11.116;2023-04-15T09:30:29;98218.50;;;14.03;37.37
68988;BME280;56038;46.080;11.116;2023-04-15T09:35:31;98206.13;;;14.53;36.01
68988;BME280;56038;46.080;11.116;2023-04-15T09:40:34;98198.63;;;14.82;35.75
68988;BME280;56038;46.080;11.116;2023-04-15T09:45:38;98192.63;;;15.15;34.72
68988;BME280;56038;46.080;11.116;2023-04-15T09:50:42;98188.38;;;15.57;34.26
68988;BME280;56038;46.080;11.116;2023-04-15T09:55:45;98178.75;;;16.33;32.72
68988;BME280;56038;46.080;11.116;2023-04-15T10:00:49;98179.69;;;17.05;32.91
68988;BME280;56038;46.080;11.116;2023-04-15T10:05:59;98189.13;;;17.39;29.56
68988;BME280;56038;46.080;11.116;2023-04-15T10:11:05;98170.94;;;17.45;29.63
68988;BME280;56038;46.080;11.116;2023-04-15T10:16:10;98165.69;;;18.05;29.64
68988;BME280;56038;46.080;11.116;2023-04-15T10:21:13;98153.72;;;18.49;29.54
68988;BME280;56038;46.080;11.116;2023-04-15T10:26:17;98162.47;;;18.49;29.20
68988;BME280;56038;46.080;11.116;2023-04-15T10:31:21;98138.09;;;18.55;27.14
68988;BME280;56038;46.080;11.116;2023-04-15T10:36:24;98139.59;;;18.77;27.91
68988;BME280;56038;46.080;11.116;2023-04-15T10:41:27;98133.28;;;19.35;27.99
68988;BME280;56038;46.080;11.116;2023-04-15T10:46:36;98139.53;;;19.43;25.37
68988;BME280;56038;46.080;11.116;2023-04-15T10:51:40;98125.88;;;19.66;26.35
68988;BME280;56038;46.080;11.116;2023-04-15T10:56:42;98127.97;;;19.90;27.24
68988;BME280;56038;46.080;11.116;2023-04-15T11:01:53;98124.09;;;20.02;23.40
68988;BME280;56038;46.080;11.116;2023-04-15T11:07:04;98114.91;;;20.32;23.52
68988;BME280;56038;46.080;11.116;2023-04-15T11:12:07;98109.31;;;20.53;26.14
68988;BME280;56038;46.080;11.116;2023-04-15T11:17:11;98111.53;;;20.91;25.01
68988;BME280;56038;46.080;11.116;2023-04-15T11:22:12;98111.69;;;20.64;25.03
68988;BME280;56038;46.080;11.116;2023-04-15T11:27:20;98112.22;;;20.42;23.73
68988;BME280;56038;46.080;11.116;2023-04-15T11:32:24;98105.25;;;20.05;24.72
68988;BME280;56038;46.080;11.116;2023-04-15T11:37:28;98101.59;;;20.24;23.44
68988;BME280;56038;46.080;11.116;2023-04-15T11:42:30;98097.16;;;20.68;24.01
68988;BME280;56038;46.080;11.116;2023-04-15T11:47:34;98081.09;;;21.12;23.20
68988;BME280;56038;46.080;11.116;2023-04-15T11:52:36;98072.31;;;21.62;22.94
68988;BME280;56038;46.080;11.116;2023-04-15T11:57:37;98074.94;;;22.12;21.97
68988;BME280;56038;46.080;11.116;2023-04-15T12:02:40;98076.91;;;22.18;20.68
68988;BME280;56038;46.080;11.116;2023-04-15T12:07:57;98074.63;;;21.48;17.42
68988;BME280;56038;46.080;11.116;2023-04-15T12:12:59;98066.53;;;21.16;20.54
68988;BME280;56038;46.080;11.116;2023-04-15T12:18:03;98075.84;;;21.20;21.36
68988;BME280;56038;46.080;11.116;2023-04-15T12:23:05;98069.13;;;21.08;19.12
68988;BME280;56038;46.080;11.116;2023-04-15T12:28:10;98062.38;;;21.21;19.07
68988;BME280;56038;46.080;11.116;2023-04-15T12:33:13;98065.72;;;21.66;17.42
68988;BME280;56038;46.080;11.116;2023-04-15T12:38:15;98064.22;;;21.71;19.32
68988;BME280;56038;46.080;11.116;2023-04-15T12:43:16;98063.13;;;21.40;19.18
68988;BME280;56038;46.080;11.116;2023-04-15T12:48:19;98058.56;;;21.66;18.44
68988;BME280;56038;46.080;11.116;2023-04-15T12:53:21;98063.97;;;21.32;17.92
68988;BME280;56038;46.080;11.116;2023-04-15T12:58:23;98073.31;;;21.52;18.29
68988;BME280;56038;46.080;11.116;2023-04-15T13:03:26;98061.69;;;21.62;17.55
68988;BME280;56038;46.080;11.116;2023-04-15T13:08:27;98062.75;;;22.01;18.48
68988;BME280;56038;46.080;11.116;2023-04-15T13:13:29;98065.06;;;21.80;18.42
68988;BME280;56038;46.080;11.116;2023-04-15T13:18:33;98061.31;;;21.40;17.54
68988;BME280;56038;46.080;11.116;2023-04-15T13:23:34;98062.81;;;21.01;17.13
68988;BME280;56038;46.080;11.116;2023-04-15T13:28:36;98068.69;;;21.20;18.36
68988;BME280;56038;46.080;11.116;2023-04-15T13:33:39;98068.50;;;21.14;17.36
68988;BME280;56038;46.080;11.116;2023-04-15T13:38:41;98067.50;;;21.49;18.32
68988;BME280;56038;46.080;11.116;2023-04-15T13:43:42;98079.00;;;21.66;17.02
68988;BME280;56038;46.080;11.116;2023-04-15T13:48:46;98071.56;;;21.27;17.20
68988;BME280;56038;46.080;11.116;2023-04-15T13:53:48;98079.09;;;21.40;17.11
68988;BME280;56038;46.080;11.116;2023-04-15T13:58:51;98083.06;;;21.36;17.50
68988;BME280;56038;46.080;11.116;2023-04-15T14:03:55;98077.16;;;21.74;17.46
68988;BME280;56038;46.080;11.116;2023-04-15T14:08:57;98075.97;;;21.52;17.41
68988;BME280;56038;46.080;11.116;2023-04-15T14:13:58;98076.13;;;21.51;18.56
68988;BME280;56038;46.080;11.116;2023-04-15T14:19:01;98083.91;;;21.02;18.70
68988;BME280;56038;46.080;11.116;2023-04-15T14:24:04;98093.09;;;20.38;18.94
68988;BME280;56038;46.080;11.116;2023-04-15T14:29:05;98090.47;;;20.02;19.00
68988;BME280;56038;46.080;11.116;2023-04-15T14:34:09;98103.06;;;19.55;19.91
68988;BME280;56038;46.080;11.116;2023-04-15T14:39:10;98109.25;;;19.19;19.49
68988;BME280;56038;46.080;11.116;2023-04-15T14:44:12;98108.22;;;18.92;20.16
68988;BME280;56038;46.080;11.116;2023-04-15T14:49:15;98125.53;;;18.87;20.67
68988;BME280;56038;46.080;11.116;2023-04-15T14:54:17;98135.28;;;18.76;21.42
68988;BME280;56038;46.080;11.116;2023-04-15T14:59:19;98141.19;;;18.41;21.95
68988;BME280;56038;46.080;11.116;2023-04-15T15:04:22;98149.81;;;18.34;22.33
68988;BME280;56038;46.080;11.116;2023-04-15T15:09:24;98158.72;;;18.23;22.54
68988;BME280;56038;46.080;11.116;2023-04-15T15:14:25;98165.66;;;18.14;22.64
68988;BME280;56038;46.080;11.116;2023-04-15T15:19:28;98172.34;;;18.09;22.90
68988;BME280;56038;46.080;11.116;2023-04-15T15:24:30;98180.97;;;18.01;23.17
68988;BME280;56038;46.080;11.116;2023-04-15T15:29:32;98174.28;;;17.97;23.28
68988;BME280;56038;46.080;11.116;2023-04-15T15:34:35;98185.03;;;17.65;23.37
68988;BME280;56038;46.080;11.116;2023-04-15T15:39:37;98183.34;;;17.64;23.37
68988;BME280;56038;46.080;11.116;2023-04-15T15:44:38;98200.03;;;17.55;23.81
68988;BME280;56038;46.080;11.116;2023-04-15T15:49:41;98207.75;;;17.47;23.74
68988;BME280;56038;46.080;11.116;2023-04-15T15:54:43;98214.16;;;17.44;24.04
68988;BME280;56038;46.080;11.116;2023-04-15T15:59:45;98222.06;;;17.44;24.29
68988;BME280;56038;46.080;11.116;2023-04-15T16:04:48;98230.00;;;17.44;24.41
68988;BME280;56038;46.080;11.116;2023-04-15T16:09:51;98233.81;;;17.30;24.46
68988;BME280;56038;46.080;11.116;2023-04-15T16:14:53;98244.72;;;17.16;24.52
68988;BME280;56038;46.080;11.116;2023-04-15T16:19:56;98243.75;;;17.17;24.50
68988;BME280;56038;46.080;11.116;2023-04-15T16:24:59;98250.44;;;17.21;24.45
68988;BME280;56038;46.080;11.116;2023-04-15T16:30:00;98256.91;;;17.08;24.29
68988;BME280;56038;46.080;11.116;2023-04-15T16:35:05;98260.13;;;16.90;24.32
68988;BME280;56038;46.080;11.116;2023-04-15T16:40:08;98268.66;;;16.83;24.05
68988;BME280;56038;46.080;11.116;2023-04-15T16:45:10;98263.19;;;16.74;24.60
68988;BME280;56038;46.080;11.116;2023-04-15T16:50:13;98258.88;;;16.73;24.84
68988;BME280;56038;46.080;11.116;2023-04-15T16:55:15;98266.38;;;16.57;25.68
68988;BME280;56038;46.080;11.116;2023-04-15T17:00:17;98271.13;;;16.31;25.78
68988;BME280;56038;46.080;11.116;2023-04-15T17:05:24;98271.50;;;16.15;26.15
68988;BME280;56038;46.080;11.116;2023-04-15T17:10:30;98282.91;;;15.94;26.79
68988;BME280;56038;46.080;11.116;2023-04-15T17:15:32;98283.28;;;15.78;27.28
68988;BME280;56038;46.080;11.116;2023-04-15T17:20:35;98294.56;;;15.69;27.76
68988;BME280;56038;46.080;11.116;2023-04-15T17:25:36;98311.25;;;15.56;27.71
68988;BME280;56038;46.080;11.116;2023-04-15T17:30:38;98311.47;;;15.42;28.01
68988;BME280;56038;46.080;11.116;2023-04-15T17:35:42;98319.47;;;15.29;28.23
68988;BME280;56038;46.080;11.116;2023-04-15T17:40:44;98335.13;;;15.20;28.58
68988;BME280;56038;46.080;11.116;2023-04-15T17:45:45;98350.03;;;15.08;28.49
68988;BME280;56038;46.080;11.116;2023-04-15T17:50:49;98354.75;;;14.92;29.07
68988;BME280;56038;46.080;11.116;2023-04-15T17:55:50;98355.44;;;14.83;29.34
68988;BME280;56038;46.080;11.116;2023-04-15T18:00:53;98363.59;;;14.67;29.46
68988;BME280;56038;46.080;11.116;2023-04-15T18:05:59;98370.06;;;14.50;29.87
68988;BME280;56038;46.080;11.116;2023-04-15T18:11:05;98388.50;;;14.37;29.99
68988;BME280;56038;46.080;11.116;2023-04-15T18:16:07;98396.06;;;14.29;30.56
68988;BME280;56038;46.080;11.116;2023-04-15T18:21:10;98399.78;;;14.14;30.59
68988;BME280;56038;46.080;11.116;2023-04-15T18:26:12;98413.84;;;14.13;31.72
68988;BME280;56038;46.080;11.116;2023-04-15T18:31:16;98421.00;;;13.86;31.34
68988;BME280;56038;46.080;11.116;2023-04-15T18:36:19;98429.53;;;13.64;32.09
68988;BME280;56038;46.080;11.116;2023-04-15T18:41:21;98439.06;;;13.52;32.18
68988;BME280;56038;46.080;11.116;2023-04-15T18:46:24;98456.38;;;13.42;32.29
68988;BME280;56038;46.080;11.116;2023-04-15T18:51:27;98460.53;;;13.32;32.53
68988;BME280;56038;46.080;11.116;2023-04-15T18:56:29;98469.81;;;13.23;32.60
68988;BME280;56038;46.080;11.116;2023-04-15T19:01:30;98476.84;;;13.23;32.62
68988;BME280;56038;46.080;11.116;2023-04-15T19:06:34;98491.38;;;13.14;32.88
68988;BME280;56038;46.080;11.116;2023-04-15T19:11:35;98495.63;;;13.02;33.19
68988;BME280;56038;46.080;11.116;2023-04-15T19:16:37;98505.19;;;12.89;33.72
68988;BME280;56038;46.080;11.116;2023-04-15T19:21:42;98521.44;;;12.67;34.06
68988;BME280;56038;46.080;11.116;2023-04-15T19:26:47;98529.22;;;12.40;34.62
68988;BME280;56038;46.080;11.116;2023-04-15T19:31:49;98538.19;;;12.36;34.84
68988;BME280;56038;46.080;11.116;2023-04-15T19:36:52;98542.94;;;12.29;35.27
68988;BME280;56038;46.080;11.116;2023-04-15T19:41:54;98554.56;;;12.25;35.34
68988;BME280;56038;46.080;11.116;2023-04-15T19:46:58;98560.41;;;12.15;35.75
68988;BME280;56038;46.080;11.116;2023-04-15T19:52:01;98566.22;;;12.06;35.88
68988;BME280;56038;46.080;11.116;2023-04-15T19:57:03;98567.25;;;12.03;36.12
68988;BME280;56038;46.080;11.116;2023-04-15T20:02:05;98571.72;;;12.01;36.36
68988;BME280;56038;46.080;11.116;2023-04-15T20:07:08;98572.72;;;11.98;36.73
68988;BME280;56038;46.080;11.116;2023-04-15T20:12:13;98587.13;;;11.91;36.89
68988;BME280;56038;46.080;11.116;2023-04-15T20:17:15;98588.22;;;11.87;37.19
68988;BME280;56038;46.080;11.116;2023-04-15T20:22:18;98607.91;;;11.63;37.98
68988;BME280;56038;46.080;11.116;2023-04-15T20:27:20;98623.53;;;11.33;38.87
68988;BME280;56038;46.080;11.116;2023-04-15T20:32:22;98622.84;;;11.14;39.88
68988;BME280;56038;46.080;11.116;2023-04-15T20:37:25;98623.69;;;11.14;39.69
68988;BME280;56038;46.080;11.116;2023-04-15T20:42:33;98640.97;;;11.17;39.53
68988;BME280;56038;46.080;11.116;2023-04-15T20:47:35;98651.34;;;11.18;39.29
68988;BME280;56038;46.080;11.116;2023-04-15T20:52:38;98648.81;;;11.17;39.39
68988;BME280;56038;46.080;11.116;2023-04-15T20:57:40;98647.56;;;11.08;39.92
68988;BME280;56038;46.080;11.116;2023-04-15T21:02:41;98655.59;;;10.88;40.59
68988;BME280;56038;46.080;11.116;2023-04-15T21:07:44;98661.84;;;10.85;40.99
68988;BME280;56038;46.080;11.116;2023-04-15T21:12:46;98670.16;;;10.76;41.08
68988;BME280;56038;46.080;11.116;2023-04-15T21:17:48;98680.06;;;10.69;41.99
68988;BME280;56038;46.080;11.116;2023-04-15T21:22:51;98687.56;;;10.60;42.03
68988;BME280;56038;46.080;11.116;2023-04-15T21:27:52;98688.00;;;10.50;41.89
68988;BME280;56038;46.080;11.116;2023-04-15T21:32:54;98702.38;;;10.42;43.01
68988;BME280;56038;46.080;11.116;2023-04-15T21:37:57;98703.59;;;10.35;42.84
68988;BME280;56038;46.080;11.116;2023-04-15T21:42:59;98713.59;;;10.27;43.61
68988;BME280;56038;46.080;11.116;2023-04-15T21:48:01;98718.81;;;10.27;43.82
68988;BME280;56038;46.080;11.116;2023-04-15T21:53:06;98718.53;;;10.14;44.75
68988;BME280;56038;46.080;11.116;2023-04-15T21:58:08;98720.97;;;10.00;48.45
68988;BME280;56038;46.080;11.116;2023-04-15T22:03:11;98723.00;;;9.93;44.38
68988;BME280;56038;46.080;11.116;2023-04-15T22:08:14;98727.31;;;9.75;46.56
68988;BME280;56038;46.080;11.116;2023-04-15T22:13:16;98738.47;;;9.60;47.20
68988;BME280;56038;46.080;11.116;2023-04-15T22:18:18;98742.28;;;9.53;47.73
68988;BME280;56038;46.080;11.116;2023-04-15T22:23:21;98746.59;;;9.35;47.57
68988;BME280;56038;46.080;11.116;2023-04-15T22:28:23;98753.41;;;9.38;47.73
68988;BME280;56038;46.080;11.116;2023-04-15T22:33:24;98762.00;;;9.40;47.50
68988;BME280;56038;46.080;11.116;2023-04-15T22:38:27;98770.59;;;9.42;46.98
68988;BME280;56038;46.080;11.116;2023-04-15T22:43:29;98781.25;;;9.37;46.56
68988;BME280;56038;46.080;11.116;2023-04-15T22:48:31;98781.53;;;9.31;47.37
68988;BME280;56038;46.080;11.116;2023-04-15T22:53:34;98783.41;;;9.27;46.99
68988;BME280;56038;46.080;11.116;2023-04-15T22:58:36;98780.44;;;9.16;48.20
68988;BME280;56038;46.080;11.116;2023-04-15T23:03:38;98780.13;;;9.04;48.58
68988;BME280;56038;46.080;11.116;2023-04-15T23:08:41;98776.75;;;9.02;48.97
68988;BME280;56038;46.080;11.116;2023-04-15T23:13:44;98782.72;;;9.04;49.00
68988;BME280;56038;46.080;11.116;2023-04-15T23:18:46;98784.09;;;8.92;49.19
68988;BME280;56038;46.080;11.116;2023-04-15T23:23:49;98788.06;;;8.80;49.59
68988;BME280;56038;46.080;11.116;2023-04-15T23:28:50;98791.84;;;8.73;50.51
68988;BME280;56038;46.080;11.116;2023-04-15T23:33:52;98786.84;;;8.68;50.17
68988;BME280;56038;46.080;11.116;2023-04-15T23:38:55;98787.28;;;8.78;50.72
68988;BME280;56038;46.080;11.116;2023-04-15T23:43:56;98788.91;;;8.81;49.79
68988;BME280;56038;46.080;11.116;2023-04-15T23:48:58;98788.72;;;8.85;49.57
68988;BME280;56038;46.080;11.116;2023-04-15T23:54:01;98789.66;;;8.84;48.73
68988;BME280;56038;46.080;11.116;2023-04-15T23:59:03;98795.88;;;8.80;49.30
